Time;durP1;ratioP1;P1;durP2;ratioP2;P2;SDS_P1;SDS_P2;PMS_P1;PMS_P2;Temp;Humidity;BMP_temperature;BMP_pressure;BME280_temperature;BME280_humidity;BME280_pressure;Samples;Min_cycle;Max_cycle;Signal;HPM_P1;HPM_P2
2023/03/23 00:02:29;;;;;;;12.68;7.47;;;;;;;;;;5023695;28;20104;-64
2023/03/23 00:04:55;;;;;;;9.60;7.13;;;;;;;;;;5023656;28;20064;-61
2023/03/23 00:07:22;;;;;;;14.70;7.95;;;;;;;;;;5018747;28;20050;-62
2023/03/23 00:09:52;;;;;;;11.77;7.40;;;;;;;;;;5008038;28;20053;-63
2023/03/23 00:12:19;;;;;;;18.05;7.25;;;;;;;;;;5004677;28;20041;-62
2023/03/23 00:14:45;;;;;;;13.45;7.22;;;;;;;;;;5007361;28;20042;-62
2023/03/23 00:17:14;;;;;;;12.65;7.00;;;;;;;;;;5005002;28;20048;-62
2023/03/23 00:19:48;;;;;;;12.20;6.88;;;;;;;;;;5008340;28;20038;-62
2023/03/23 00:22:15;;;;;;;12.68;7.35;;;;;;;;;;4989924;28;20065;-62
2023/03/23 00:24:42;;;;;;;15.80;7.45;;;;;;;;;;5004204;28;20052;-62
2023/03/23 00:27:12;;;;;;;13.90;6.43;;;;;;;;;;5008747;28;20172;-61
2023/03/23 00:29:40;;;;;;;11.85;5.97;;;;;;;;;;5004630;28;20057;-61
2023/03/23 00:32:06;;;;;;;12.03;6.40;;;;;;;;;;5009449;28;20046;-61
2023/03/23 00:34:34;;;;;;;12.35;6.13;;;;;;;;;;5003065;28;20045;-62
2023/03/23 00:37:00;;;;;;;9.68;5.95;;;;;;;;;;5004566;28;20041;-62
2023/03/23 00:39:27;;;;;;;15.27;6.63;;;;;;;;;;5008710;28;20041;-61
2023/03/23 00:41:54;;;;;;;7.70;4.93;;;;;;;;;;5005194;28;20045;-62
2023/03/23 00:44:23;;;;;;;9.57;5.82;;;;;;;;;;5007353;28;20061;-62
2023/03/23 00:46:49;;;;;;;9.10;5.30;;;;;;;;;;5005026;28;20064;-62
2023/03/23 00:49:17;;;;;;;11.05;6.13;;;;;;;;;;5003925;28;20108;-62
2023/03/23 00:51:44;;;;;;;12.60;5.60;;;;;;;;;;5002970;28;20073;-62
2023/03/23 00:54:10;;;;;;;10.00;5.50;;;;;;;;;;5003934;28;20050;-62
2023/03/23 00:56:38;;;;;;;10.07;5.05;;;;;;;;;;5009584;28;20131;-62
2023/03/23 00:59:05;;;;;;;7.97;4.70;;;;;;;;;;5004027;28;20045;-62
2023/03/23 01:01:31;;;;;;;8.68;4.70;;;;;;;;;;5005877;28;20435;-62
2023/03/23 01:04:01;;;;;;;13.30;4.85;;;;;;;;;;5005250;28;20599;-61
2023/03/23 01:06:38;;;;;;;10.52;4.60;;;;;;;;;;4987627;28;20054;-62
2023/03/23 01:09:21;;;;;;;8.55;4.50;;;;;;;;;;5002924;28;20803;-63
2023/03/23 01:11:57;;;;;;;10.93;3.90;;;;;;;;;;5003206;28;20049;-63
2023/03/23 01:14:33;;;;;;;11.13;4.40;;;;;;;;;;5003460;28;20049;-61
2023/03/23 01:17:10;;;;;;;8.43;4.00;;;;;;;;;;5002586;28;20034;-63
2023/03/23 01:19:46;;;;;;;8.60;4.72;;;;;;;;;;4999782;28;20073;-62
2023/03/23 01:22:22;;;;;;;8.63;4.65;;;;;;;;;;5002535;28;20065;-62
2023/03/23 01:24:59;;;;;;;9.20;3.70;;;;;;;;;;5003010;28;20042;-63
2023/03/23 01:27:35;;;;;;;7.57;3.65;;;;;;;;;;5000646;28;20095;-63
2023/03/23 01:30:14;;;;;;;9.75;3.97;;;;;;;;;;5002176;28;20054;-63
2023/03/23 01:32:51;;;;;;;9.82;3.15;;;;;;;;;;5001486;28;20034;-63
2023/03/23 01:35:27;;;;;;;8.25;3.58;;;;;;;;;;5002391;28;20132;-63
2023/03/23 01:38:04;;;;;;;7.45;3.17;;;;;;;;;;5002520;28;20067;-62
2023/03/23 01:40:45;;;;;;;9.15;4.45;;;;;;;;;;5003310;28;20080;-62
2023/03/23 01:43:13;;;;;;;11.02;3.40;;;;;;;;;;5002700;28;20092;-62
2023/03/23 01:45:40;;;;;;;7.85;3.28;;;;;;;;;;5002324;28;20129;-62
2023/03/23 01:48:16;;;;;;;8.02;3.00;;;;;;;;;;5002531;28;20045;-62
2023/03/23 01:50:57;;;;;;;10.13;3.50;;;;;;;;;;5001989;28;20046;-63
2023/03/23 01:53:26;;;;;;;6.85;3.30;;;;;;;;;;5002504;28;20491;-62
2023/03/23 01:55:53;;;;;;;8.35;2.97;;;;;;;;;;5002378;28;20049;-62
2023/03/23 01:58:21;;;;;;;9.50;3.03;;;;;;;;;;5002475;28;20212;-62
2023/03/23 02:00:48;;;;;;;;;;;;;;;;;;5002635;28;20041;-62
2023/03/23 02:03:16;;;;;;;7.32;3.05;;;;;;;;;;5002136;28;20268;-62
2023/03/23 02:05:43;;;;;;;10.05;3.05;;;;;;;;;;5002242;28;20046;-62
2023/03/23 02:08:10;;;;;;;6.88;2.45;;;;;;;;;;5002572;28;20072;-62
2023/03/23 02:10:38;;;;;;;5.75;3.50;;;;;;;;;;5006026;28;20046;-62
2023/03/23 02:13:05;;;;;;;7.93;3.03;;;;;;;;;;4983346;28;20041;-56
2023/03/23 02:15:39;;;;;;;7.15;3.03;;;;;;;;;;5005602;28;20068;-62
2023/03/23 02:18:10;;;;;;;7.97;3.33;;;;;;;;;;5004767;28;20046;-62
2023/03/23 02:20:46;;;;;;;5.35;2.75;;;;;;;;;;5003604;28;20068;-61
2023/03/23 02:23:20;;;;;;;9.10;3.00;;;;;;;;;;5005448;28;20045;-62
2023/03/23 02:25:55;;;;;;;8.23;3.33;;;;;;;;;;5001894;28;20136;-62
2023/03/23 02:28:31;;;;;;;6.13;2.63;;;;;;;;;;5005700;28;20093;-62
2023/03/23 02:30:59;;;;;;;6.68;2.58;;;;;;;;;;5001104;28;20041;-63
2023/03/23 02:33:26;;;;;;;7.07;2.42;;;;;;;;;;5006267;28;20081;-63
2023/03/23 02:35:55;;;;;;;6.20;2.53;;;;;;;;;;5010501;28;20064;-63
2023/03/23 02:38:26;;;;;;;6.55;2.83;;;;;;;;;;5003311;28;20050;-63
2023/03/23 02:40:54;;;;;;;6.43;3.22;;;;;;;;;;5007188;28;20077;-63
2023/03/23 02:43:23;;;;;;;7.13;2.92;;;;;;;;;;5005127;28;20046;-63
2023/03/23 02:45:50;;;;;;;5.38;2.35;;;;;;;;;;5000943;28;20042;-62
2023/03/23 02:48:19;;;;;;;12.63;2.93;;;;;;;;;;5007014;28;20129;-63
2023/03/23 02:50:46;;;;;;;5.97;2.58;;;;;;;;;;5002986;28;20301;-62
2023/03/23 02:53:14;;;;;;;8.73;2.83;;;;;;;;;;5007825;28;20041;-63
2023/03/23 02:55:41;;;;;;;12.63;3.05;;;;;;;;;;5003219;28;20792;-62
2023/03/23 02:58:09;;;;;;;6.82;2.95;;;;;;;;;;5002141;28;20050;-62
2023/03/23 03:00:35;;;;;;;6.90;2.90;;;;;;;;;;5003219;28;20040;-63
2023/03/23 03:03:02;;;;;;;6.88;2.45;;;;;;;;;;5003620;28;20409;-63
2023/03/23 03:05:30;;;;;;;10.55;2.63;;;;;;;;;;5005385;28;20074;-62
2023/03/23 03:08:02;;;;;;;7.30;2.53;;;;;;;;;;5015305;28;20049;-62
2023/03/23 03:10:41;;;;;;;8.57;2.50;;;;;;;;;;5022101;28;20049;-62
2023/03/23 03:13:31;;;;;;;7.07;2.72;;;;;;;;;;5004260;28;20446;-63
2023/03/23 03:16:16;;;;;;;5.03;2.40;;;;;;;;;;5024187;28;20099;-62
2023/03/23 03:18:52;;;;;;;8.02;3.00;;;;;;;;;;5021525;28;20049;-63
2023/03/23 03:21:20;;;;;;;7.78;2.35;;;;;;;;;;5021716;28;20042;-62
2023/03/23 03:23:49;;;;;;;9.75;2.50;;;;;;;;;;5024639;28;20101;-62
2023/03/23 03:26:17;;;;;;;10.82;2.70;;;;;;;;;;5024544;28;20438;-62
2023/03/23 03:28:47;;;;;;;7.60;2.70;;;;;;;;;;5024847;28;20041;-63
2023/03/23 03:31:14;;;;;;;8.30;2.95;;;;;;;;;;5023705;28;20044;-62
2023/03/23 03:33:46;;;;;;;4.82;2.80;;;;;;;;;;5025263;28;20038;-63
2023/03/23 03:36:22;;;;;;;6.13;2.75;;;;;;;;;;5024588;28;20061;-63
2023/03/23 03:38:57;;;;;;;;;;;;;;;;;;5024932;28;20491;-63
2023/03/23 03:41:33;;;;;;;9.52;3.00;;;;;;;;;;5024794;28;20502;-62
2023/03/23 03:44:10;;;;;;;5.38;2.90;;;;;;;;;;5024270;28;20045;-63
2023/03/23 03:46:46;;;;;;;8.70;3.33;;;;;;;;;;5023976;28;20056;-63
2023/03/23 03:49:15;;;;;;;7.40;3.03;;;;;;;;;;5024585;28;20642;-63
2023/03/23 03:51:42;;;;;;;5.75;3.00;;;;;;;;;;5022818;28;20500;-63
2023/03/23 03:54:08;;;;;;;8.18;3.08;;;;;;;;;;5024067;28;20049;-62
2023/03/23 03:56:37;;;;;;;7.75;3.22;;;;;;;;;;5024183;28;20041;-62
2023/03/23 03:59:04;;;;;;;7.15;3.17;;;;;;;;;;5025100;28;20568;-63
2023/03/23 04:01:30;;;;;;;6.40;2.78;;;;;;;;;;5019553;28;20136;-62
2023/03/23 04:03:57;;;;;;;8.30;3.38;;;;;;;;;;5024144;28;20055;-63
2023/03/23 04:06:23;;;;;;;8.48;3.33;;;;;;;;;;5023311;28;20046;-63
2023/03/23 04:08:50;;;;;;;5.72;3.33;;;;;;;;;;5009409;28;20559;-62
2023/03/23 04:11:16;;;;;;;6.70;3.42;;;;;;;;;;5004979;28;20049;-62
2023/03/23 04:13:42;;;;;;;10.15;3.83;;;;;;;;;;5010417;28;20374;-63
2023/03/23 04:16:08;;;;;;;10.07;3.92;;;;;;;;;;4987199;28;20663;-62
2023/03/23 04:18:35;;;;;;;8.68;3.80;;;;;;;;;;5007256;28;20070;-62
2023/03/23 04:21:02;;;;;;;7.57;3.58;;;;;;;;;;5004525;28;20044;-61
2023/03/23 04:23:31;;;;;;;8.57;3.38;;;;;;;;;;5003488;28;20049;-61
2023/03/23 04:25:57;;;;;;;16.20;3.80;;;;;;;;;;5004766;28;20053;-62
2023/03/23 04:28:25;;;;;;;6.97;3.35;;;;;;;;;;5008032;28;20720;-62
2023/03/23 04:30:53;;;;;;;6.28;3.42;;;;;;;;;;5007107;28;20041;-62
2023/03/23 04:33:21;;;;;;;5.85;4.00;;;;;;;;;;5003922;28;20099;-62
2023/03/23 04:35:47;;;;;;;12.32;3.75;;;;;;;;;;5003765;28;20519;-62
2023/03/23 04:38:15;;;;;;;8.85;4.05;;;;;;;;;;5004163;28;20042;-62
2023/03/23 04:40:42;;;;;;;6.68;3.58;;;;;;;;;;5008139;28;20046;-62
2023/03/23 04:43:08;;;;;;;13.43;4.00;;;;;;;;;;5005537;28;20042;-62
2023/03/23 04:45:37;;;;;;;8.52;4.40;;;;;;;;;;4985297;28;20488;-63
2023/03/23 04:48:04;;;;;;;10.48;4.72;;;;;;;;;;5007139;28;20050;-63
2023/03/23 04:50:32;;;;;;;9.70;4.00;;;;;;;;;;5004652;28;20050;-63
2023/03/23 04:53:03;;;;;;;11.15;4.82;;;;;;;;;;5007373;28;20053;-62
2023/03/23 04:55:30;;;;;;;8.75;2.75;;;;;;;;;;5007412;28;21853;-63
2023/03/23 04:58:01;;;;;;;7.53;1.50;;;;;;;;;;5003991;28;20396;-64
2023/03/23 05:00:38;;;;;;;4.82;1.40;;;;;;;;;;5007924;28;20128;-63
2023/03/23 05:03:16;;;;;;;7.25;1.45;;;;;;;;;;5001483;28;20104;-63
2023/03/23 05:05:51;;;;;;;;;;;;;;;;;;5009647;28;20045;-62
2023/03/23 05:08:22;;;;;;;2.85;0.95;;;;;;;;;;5018169;28;19921;-63
2023/03/23 05:10:53;;;;;;;5.70;1.10;;;;;;;;;;5030046;28;20048;-62
2023/03/23 05:13:19;;;;;;;5.82;1.35;;;;;;;;;;5021077;28;20048;-62
2023/03/23 05:15:46;;;;;;;6.90;0.85;;;;;;;;;;5023872;28;20112;-62
2023/03/23 05:18:12;;;;;;;4.03;1.20;;;;;;;;;;5023952;28;20049;-63
2023/03/23 05:20:38;;;;;;;3.00;1.02;;;;;;;;;;5023076;28;20076;-63
2023/03/23 05:23:05;;;;;;;6.20;1.20;;;;;;;;;;5018213;28;20116;-62
2023/03/23 05:25:36;;;;;;;3.53;1.17;;;;;;;;;;5023095;28;20045;-62
2023/03/23 05:28:02;;;;;;;10.20;1.75;;;;;;;;;;5019560;28;20073;-62
2023/03/23 05:30:29;;;;;;;9.57;1.70;;;;;;;;;;5021539;28;20050;-63
2023/03/23 05:32:55;;;;;;;8.05;1.75;;;;;;;;;;5023251;28;20113;-62
2023/03/23 05:35:22;;;;;;;9.02;1.75;;;;;;;;;;5026227;28;20487;-62
2023/03/23 05:37:48;;;;;;;9.45;1.73;;;;;;;;;;5025623;28;20049;-63
2023/03/23 05:40:14;;;;;;;8.30;1.70;;;;;;;;;;5024148;28;20141;-62
2023/03/23 05:42:41;;;;;;;9.35;1.95;;;;;;;;;;5026752;28;20048;-62
2023/03/23 05:45:14;;;;;;;8.15;1.55;;;;;;;;;;5021315;28;20057;-63
2023/03/23 05:48:02;;;;;;;9.70;1.58;;;;;;;;;;5025049;28;20076;-60
2023/03/23 05:50:39;;;;;;;8.68;1.85;;;;;;;;;;5028843;28;20049;-63
2023/03/23 05:53:16;;;;;;;7.50;1.50;;;;;;;;;;5021827;28;20049;-62
2023/03/23 05:55:52;;;;;;;6.45;1.27;;;;;;;;;;5022650;28;20044;-62
2023/03/23 05:58:31;;;;;;;8.23;1.38;;;;;;;;;;5020989;28;20071;-62
2023/03/23 06:01:13;;;;;;;7.68;1.52;;;;;;;;;;5020775;28;20403;-63
2023/03/23 06:03:53;;;;;;;9.63;1.58;;;;;;;;;;5023030;28;20049;-63
2023/03/23 06:06:23;;;;;;;9.85;1.63;;;;;;;;;;5020507;28;20056;-62
2023/03/23 06:08:50;;;;;;;14.35;2.08;;;;;;;;;;5021675;28;20049;-62
2023/03/23 06:11:17;;;;;;;8.70;1.40;;;;;;;;;;5020569;28;20613;-62
2023/03/23 06:13:44;;;;;;;8.07;1.50;;;;;;;;;;5025108;28;20124;-62
2023/03/23 06:16:10;;;;;;;9.82;1.88;;;;;;;;;;5025976;28;20166;-62
2023/03/23 06:18:40;;;;;;;8.00;1.48;;;;;;;;;;5022346;28;20144;-62
2023/03/23 06:21:07;;;;;;;11.63;2.25;;;;;;;;;;5021126;28;20390;-61
2023/03/23 06:23:34;;;;;;;7.15;1.25;;;;;;;;;;5023778;28;20060;-62
2023/03/23 06:26:02;;;;;;;13.82;1.20;;;;;;;;;;5005891;28;20569;-62
2023/03/23 06:28:28;;;;;;;11.48;2.40;;;;;;;;;;5023124;28;20041;-62
2023/03/23 06:30:54;;;;;;;8.60;1.63;;;;;;;;;;5022284;28;20085;-62
2023/03/23 06:33:21;;;;;;;6.78;1.27;;;;;;;;;;5023408;28;20052;-62
2023/03/23 06:35:48;;;;;;;10.00;2.35;;;;;;;;;;5023428;28;20490;-60
2023/03/23 06:38:15;;;;;;;12.00;2.35;;;;;;;;;;5031400;28;20057;-61
2023/03/23 06:40:46;;;;;;;14.35;1.90;;;;;;;;;;5019145;28;20387;-60
2023/03/23 06:43:12;;;;;;;8.75;1.58;;;;;;;;;;5020919;28;20518;-60
2023/03/23 06:45:38;;;;;;;12.55;1.65;;;;;;;;;;5043509;28;20437;-61
2023/03/23 06:48:04;;;;;;;12.93;2.22;;;;;;;;;;5037059;28;20782;-61
2023/03/23 06:50:31;;;;;;;14.48;2.55;;;;;;;;;;5021901;28;20049;-61
2023/03/23 06:52:57;;;;;;;10.57;2.72;;;;;;;;;;5034685;28;20455;-60
2023/03/23 06:55:23;;;;;;;14.68;2.63;;;;;;;;;;5025482;28;20596;-61
2023/03/23 06:57:49;;;;;;;17.63;2.22;;;;;;;;;;5025648;28;20033;-61
2023/03/23 07:00:15;;;;;;;16.25;2.42;;;;;;;;;;5025818;28;20056;-61
2023/03/23 07:02:42;;;;;;;21.33;2.83;;;;;;;;;;5024253;28;20042;-60
2023/03/23 07:05:09;;;;;;;14.75;3.20;;;;;;;;;;5008295;28;20045;-61
2023/03/23 07:07:37;;;;;;;13.38;2.40;;;;;;;;;;5032011;28;20503;-61
2023/03/23 07:10:04;;;;;;;20.45;2.65;;;;;;;;;;5025490;28;20514;-61
2023/03/23 07:12:31;;;;;;;20.33;2.70;;;;;;;;;;5007155;28;20044;-61
2023/03/23 07:14:57;;;;;;;23.30;2.75;;;;;;;;;;5023673;28;20045;-60
2023/03/23 07:17:23;;;;;;;21.35;3.30;;;;;;;;;;5024881;28;20046;-61
2023/03/23 07:19:49;;;;;;;16.70;2.70;;;;;;;;;;5025476;28;20041;-61
2023/03/23 07:22:15;;;;;;;16.10;2.47;;;;;;;;;;5024881;28;20045;-61
2023/03/23 07:24:42;;;;;;;19.27;2.55;;;;;;;;;;5025492;28;20069;-60
2023/03/23 07:27:09;;;;;;;20.88;3.40;;;;;;;;;;5025038;28;20380;-61
2023/03/23 07:29:38;;;;;;;16.38;1.90;;;;;;;;;;5024724;28;20046;-61
2023/03/23 07:32:04;;;;;;;20.20;2.83;;;;;;;;;;5024667;28;20526;-59
2023/03/23 07:34:31;;;;;;;18.35;2.08;;;;;;;;;;5025325;28;20052;-61
2023/03/23 07:36:58;;;;;;;17.20;3.38;;;;;;;;;;5025394;28;20038;-60
2023/03/23 07:39:25;;;;;;;14.35;2.13;;;;;;;;;;5024082;28;20153;-61
2023/03/23 07:41:51;;;;;;;15.98;2.75;;;;;;;;;;5025311;28;20084;-61
2023/03/23 07:44:17;;;;;;;7.55;2.05;;;;;;;;;;5024380;28;20498;-60
2023/03/23 07:46:43;;;;;;;15.40;2.40;;;;;;;;;;5024397;28;20041;-60
2023/03/23 07:49:10;;;;;;;14.18;3.08;;;;;;;;;;5024156;28;20410;-61
2023/03/23 07:51:38;;;;;;;14.23;2.13;;;;;;;;;;5024326;28;20047;-60
2023/03/23 07:54:04;;;;;;;20.67;3.47;;;;;;;;;;5024233;28;20076;-60
2023/03/23 07:56:31;;;;;;;16.83;2.60;;;;;;;;;;5007089;28;20057;-61
2023/03/23 07:58:57;;;;;;;21.10;3.78;;;;;;;;;;5024805;28;20041;-60
2023/03/23 08:01:24;;;;;;;32.63;4.25;;;;;;;;;;5023799;28;20051;-60
2023/03/23 08:03:51;;;;;;;21.60;2.60;;;;;;;;;;5024491;28;20089;-61
2023/03/23 08:06:18;;;;;;;16.15;3.08;;;;;;;;;;5020444;28;20045;-61
2023/03/23 08:08:45;;;;;;;19.15;3.75;;;;;;;;;;5023298;28;20076;-61
2023/03/23 08:11:13;;;;;;;14.27;3.30;;;;;;;;;;5024456;28;20136;-61
2023/03/23 08:13:39;;;;;;;31.30;3.45;;;;;;;;;;5024408;28;20045;-61
2023/03/23 08:16:06;;;;;;;22.95;3.22;;;;;;;;;;5023475;28;20045;-61
2023/03/23 08:18:34;;;;;;;19.75;2.97;;;;;;;;;;5023719;28;20124;-61
2023/03/23 08:21:00;;;;;;;;;;;;;;;;;;5024715;28;20463;-61
2023/03/23 08:23:27;;;;;;;29.38;4.60;;;;;;;;;;5023892;28;19975;-59
2023/03/23 08:25:53;;;;;;;23.35;2.78;;;;;;;;;;5024284;28;20104;-60
2023/03/23 08:28:19;;;;;;;30.60;4.07;;;;;;;;;;5023353;28;20041;-61
2023/03/23 08:30:46;;;;;;;25.42;4.13;;;;;;;;;;5023282;28;20045;-61
2023/03/23 08:33:14;;;;;;;23.02;3.30;;;;;;;;;;5023801;28;20425;-61
2023/03/23 08:35:40;;;;;;;22.57;3.63;;;;;;;;;;5019970;28;20080;-61
2023/03/23 08:38:07;;;;;;;25.75;3.42;;;;;;;;;;5023771;28;20388;-60
2023/03/23 08:40:33;;;;;;;18.92;2.88;;;;;;;;;;5024317;28;20479;-61
2023/03/23 08:42:59;;;;;;;20.60;2.67;;;;;;;;;;5024097;28;20042;-61
2023/03/23 08:45:26;;;;;;;25.17;3.25;;;;;;;;;;5022988;28;20054;-61
2023/03/23 08:47:54;;;;;;;26.40;3.53;;;;;;;;;;5023309;28;20052;-61
2023/03/23 08:50:22;;;;;;;21.58;3.03;;;;;;;;;;5023308;28;20100;-61
2023/03/23 08:52:49;;;;;;;22.10;3.42;;;;;;;;;;5023913;28;20431;-60
2023/03/23 08:55:17;;;;;;;16.77;3.03;;;;;;;;;;5023422;28;20120;-61
2023/03/23 08:57:44;;;;;;;19.10;3.00;;;;;;;;;;5023684;28;20625;-61
2023/03/23 09:00:15;;;;;;;22.77;2.95;;;;;;;;;;5022649;28;20083;-61
2023/03/23 09:02:42;;;;;;;21.00;2.95;;;;;;;;;;5022728;28;20511;-61
2023/03/23 09:05:10;;;;;;;18.05;2.80;;;;;;;;;;5022205;28;20608;-61
2023/03/23 09:07:36;;;;;;;22.08;3.38;;;;;;;;;;5023340;28;20119;-59
2023/03/23 09:10:02;;;;;;;24.58;4.10;;;;;;;;;;5023339;28;20098;-61
2023/03/23 09:12:29;;;;;;;24.63;4.03;;;;;;;;;;5022904;28;20063;-60
2023/03/23 09:14:56;;;;;;;25.55;3.33;;;;;;;;;;5022348;28;20046;-61
2023/03/23 09:17:22;;;;;;;21.33;3.72;;;;;;;;;;5023441;28;20046;-61
2023/03/23 09:19:49;;;;;;;21.35;3.30;;;;;;;;;;5023188;28;20045;-61
2023/03/23 09:22:19;;;;;;;18.30;3.05;;;;;;;;;;5022086;28;20064;-61
2023/03/23 09:24:46;;;;;;;23.77;3.47;;;;;;;;;;5023218;28;20132;-61
2023/03/23 09:27:12;;;;;;;29.85;4.00;;;;;;;;;;5022739;28;20635;-61
2023/03/23 09:29:38;;;;;;;18.98;2.60;;;;;;;;;;5004727;28;20060;-60
2023/03/23 09:32:05;;;;;;;16.52;2.70;;;;;;;;;;5022481;28;20044;-60
2023/03/23 09:34:35;;;;;;;22.45;3.28;;;;;;;;;;5020740;28;21020;-61
2023/03/23 09:37:04;;;;;;;25.35;3.15;;;;;;;;;;5023205;28;20092;-61
2023/03/23 09:39:31;;;;;;;22.60;2.47;;;;;;;;;;5021997;28;20045;-61
2023/03/23 09:42:00;;;;;;;16.25;3.30;;;;;;;;;;5022542;28;20033;-60
2023/03/23 09:44:33;;;;;;;17.33;3.30;;;;;;;;;;5021571;28;20145;-60
2023/03/23 09:47:14;;;;;;;21.38;3.70;;;;;;;;;;5023119;28;20045;-61
2023/03/23 09:49:43;;;;;;;15.00;2.42;;;;;;;;;;5022677;28;20045;-61
2023/03/23 09:52:12;;;;;;;25.10;3.72;;;;;;;;;;5022097;28;20434;-61
2023/03/23 09:54:38;;;;;;;;;;;;;;;;;;5023207;28;20091;-61
2023/03/23 09:57:05;;;;;;;22.42;2.40;;;;;;;;;;5023137;28;19929;-58
2023/03/23 09:59:36;;;;;;;18.80;2.42;;;;;;;;;;5022153;28;20057;-61
2023/03/23 10:02:19;;;;;;;20.08;2.35;;;;;;;;;;5023021;28;20053;-61
2023/03/23 10:04:46;;;;;;;18.42;2.35;;;;;;;;;;5022154;28;20060;-61
2023/03/23 10:07:15;;;;;;;22.70;2.83;;;;;;;;;;5021885;28;20209;-61
2023/03/23 10:09:42;;;;;;;13.90;2.72;;;;;;;;;;5022822;28;20053;-61
2023/03/23 10:12:14;;;;;;;19.80;2.50;;;;;;;;;;5022205;28;20041;-61
2023/03/23 10:14:52;;;;;;;11.50;2.40;;;;;;;;;;5021957;28;20037;-61
2023/03/23 10:17:19;;;;;;;21.38;2.30;;;;;;;;;;5023918;28;20131;-61
2023/03/23 10:19:49;;;;;;;23.70;2.90;;;;;;;;;;5026564;28;20479;-61
2023/03/23 10:22:18;;;;;;;20.08;3.58;;;;;;;;;;5026133;28;20077;-61
2023/03/23 10:24:52;;;;;;;12.57;2.33;;;;;;;;;;5026250;28;20390;-61
2023/03/23 10:27:18;;;;;;;24.38;2.78;;;;;;;;;;5026115;28;20076;-60
2023/03/23 10:29:52;;;;;;;12.98;3.35;;;;;;;;;;5025593;28;20562;-61
2023/03/23 10:32:21;;;;;;;13.20;2.58;;;;;;;;;;5025373;28;20456;-61
2023/03/23 10:34:51;;;;;;;10.68;1.88;;;;;;;;;;5026522;28;20080;-61
2023/03/23 10:37:20;;;;;;;15.65;2.10;;;;;;;;;;5022796;28;20041;-61
2023/03/23 10:39:50;;;;;;;20.42;2.85;;;;;;;;;;5026220;28;20037;-62
2023/03/23 10:42:26;;;;;;;12.15;2.22;;;;;;;;;;5026123;28;20046;-61
2023/03/23 10:44:52;;;;;;;17.95;2.13;;;;;;;;;;5023984;28;20046;-60
2023/03/23 10:47:18;;;;;;;9.25;2.10;;;;;;;;;;5025968;28;20128;-59
2023/03/23 10:49:48;;;;;;;9.95;2.38;;;;;;;;;;5026288;28;20398;-60
2023/03/23 10:52:32;;;;;;;12.85;1.83;;;;;;;;;;5022295;28;20049;-60
2023/03/23 10:55:03;;;;;;;21.42;2.20;;;;;;;;;;5023364;28;20400;-60
2023/03/23 10:57:31;;;;;;;8.90;1.70;;;;;;;;;;5025570;28;20048;-60
2023/03/23 11:00:00;;;;;;;8.88;1.70;;;;;;;;;;5024488;28;20044;-60
2023/03/23 11:02:28;;;;;;;12.55;1.60;;;;;;;;;;5025366;28;20403;-60
2023/03/23 11:04:56;;;;;;;12.15;2.03;;;;;;;;;;5025747;28;20053;-61
2023/03/23 11:07:30;;;;;;;12.52;1.73;;;;;;;;;;5025086;28;20085;-60
2023/03/23 11:09:58;;;;;;;10.50;1.67;;;;;;;;;;5023605;28;20045;-60
2023/03/23 11:12:26;;;;;;;9.55;2.00;;;;;;;;;;5024888;28;20616;-61
2023/03/23 11:14:52;;;;;;;12.20;2.38;;;;;;;;;;5024836;28;20696;-60
2023/03/23 11:17:23;;;;;;;9.15;1.80;;;;;;;;;;5024754;28;20030;-60
2023/03/23 11:19:49;;;;;;;7.90;2.15;;;;;;;;;;5025256;28;20046;-60
2023/03/23 11:22:21;;;;;;;6.95;1.25;;;;;;;;;;5024812;28;20475;-60
2023/03/23 11:24:48;;;;;;;11.60;1.92;;;;;;;;;;5025324;28;20049;-60
2023/03/23 11:27:15;;;;;;;12.88;1.85;;;;;;;;;;5025112;28;20051;-60
2023/03/23 11:29:50;;;;;;;17.70;2.15;;;;;;;;;;5023269;28;20041;-61
2023/03/23 11:32:17;;;;;;;15.68;1.85;;;;;;;;;;5024739;28;20123;-58
2023/03/23 11:34:43;;;;;;;10.98;1.63;;;;;;;;;;5024823;28;20041;-60
2023/03/23 11:37:12;;;;;;;9.25;1.90;;;;;;;;;;5024600;28;20128;-60
2023/03/23 11:39:49;;;;;;;14.82;2.40;;;;;;;;;;5025313;28;20041;-60
2023/03/23 11:42:20;;;;;;;15.77;2.40;;;;;;;;;;5024142;28;20053;-60
2023/03/23 11:44:46;;;;;;;11.70;1.60;;;;;;;;;;5021614;28;20037;-59
2023/03/23 11:47:18;;;;;;;11.43;1.60;;;;;;;;;;5024398;28;20046;-60
2023/03/23 11:49:51;;;;;;;8.82;2.05;;;;;;;;;;5025096;28;20045;-61
2023/03/23 11:52:46;;;;;;;7.63;2.80;;;;;;;;;;5024509;28;20033;-62
2023/03/23 11:55:16;;;;;;;14.00;2.92;;;;;;;;;;5034365;28;20096;-62
2023/03/23 11:57:43;;;;;;;15.30;2.55;;;;;;;;;;5032172;28;20053;-61
2023/03/23 12:00:14;;;;;;;10.30;1.73;;;;;;;;;;5027601;28;20088;-61
2023/03/23 12:02:45;;;;;;;11.85;2.85;;;;;;;;;;5025327;28;20136;-61
2023/03/23 12:05:15;;;;;;;10.77;1.73;;;;;;;;;;5024379;28;20056;-61
2023/03/23 12:07:50;;;;;;;13.23;1.92;;;;;;;;;;5030192;28;20083;-61
2023/03/23 12:10:25;;;;;;;14.32;2.97;;;;;;;;;;5016495;28;20084;-61
2023/03/23 12:13:03;;;;;;;10.80;1.55;;;;;;;;;;5025303;28;20046;-61
2023/03/23 12:15:41;;;;;;;7.05;1.92;;;;;;;;;;5024339;28;20041;-61
2023/03/23 12:18:07;;;;;;;18.20;2.30;;;;;;;;;;5019459;28;20788;-61
2023/03/23 12:20:45;;;;;;;11.55;2.28;;;;;;;;;;5025250;28;20037;-61
2023/03/23 12:23:22;;;;;;;12.82;1.80;;;;;;;;;;5024521;28;20041;-61
2023/03/23 12:25:48;;;;;;;16.15;1.65;;;;;;;;;;5024570;28;20048;-61
2023/03/23 12:28:15;;;;;;;16.65;2.67;;;;;;;;;;5006100;28;20202;-61
2023/03/23 12:30:43;;;;;;;12.27;1.63;;;;;;;;;;5023429;28;20057;-61
2023/03/23 12:33:14;;;;;;;15.13;1.98;;;;;;;;;;5024073;28;20056;-61
2023/03/23 12:35:48;;;;;;;14.65;2.20;;;;;;;;;;5024718;28;20091;-62
2023/03/23 12:38:20;;;;;;;7.25;2.13;;;;;;;;;;5023874;28;20121;-61
2023/03/23 12:40:48;;;;;;;9.98;1.90;;;;;;;;;;5034200;28;20563;-61
2023/03/23 12:43:15;;;;;;;12.20;1.77;;;;;;;;;;5039917;28;20048;-62
2023/03/23 12:45:58;;;;;;;13.23;1.80;;;;;;;;;;5041537;28;20449;-62
2023/03/23 12:48:29;;;;;;;9.55;1.73;;;;;;;;;;5012681;28;20141;-62
2023/03/23 12:51:06;;;;;;;9.55;2.05;;;;;;;;;;5027357;28;20045;-58
2023/03/23 12:53:37;;;;;;;13.98;1.83;;;;;;;;;;5005752;28;20072;-62
2023/03/23 12:56:25;;;;;;;13.68;2.05;;;;;;;;;;5024027;28;20306;-62
2023/03/23 12:58:55;;;;;;;17.08;2.70;;;;;;;;;;5023590;28;20060;-61
2023/03/23 13:01:26;;;;;;;14.20;2.33;;;;;;;;;;5021062;28;20556;-62
2023/03/23 13:03:57;;;;;;;13.45;2.20;;;;;;;;;;5023890;28;20468;-62
2023/03/23 13:06:23;;;;;;;10.57;1.85;;;;;;;;;;5023546;28;20132;-62
2023/03/23 13:09:00;;;;;;;13.80;2.20;;;;;;;;;;5023558;28;20626;-62
2023/03/23 13:11:33;;;;;;;12.50;1.92;;;;;;;;;;5022836;28;20538;-61
2023/03/23 13:14:04;;;;;;;19.70;2.50;;;;;;;;;;5023382;28;20116;-59
2023/03/23 13:16:42;;;;;;;15.82;1.85;;;;;;;;;;5006443;28;20053;-59
2023/03/23 13:19:14;;;;;;;13.70;2.25;;;;;;;;;;5022971;28;20041;-59
2023/03/23 13:21:44;;;;;;;13.75;2.20;;;;;;;;;;5023607;28;20131;-59
2023/03/23 13:24:13;;;;;;;10.73;1.73;;;;;;;;;;5023457;28;20049;-59
2023/03/23 13:26:42;;;;;;;13.98;2.10;;;;;;;;;;5023684;28;20084;-59
2023/03/23 13:29:13;;;;;;;9.80;1.98;;;;;;;;;;5022442;28;20041;-59
2023/03/23 13:31:40;;;;;;;8.25;2.22;;;;;;;;;;5023561;28;20167;-60
2023/03/23 13:34:16;;;;;;;13.43;2.53;;;;;;;;;;5023039;28;20053;-59
2023/03/23 13:36:44;;;;;;;12.95;2.55;;;;;;;;;;5023233;28;20398;-60
2023/03/23 13:39:19;;;;;;;13.63;1.87;;;;;;;;;;5023521;28;20049;-59
2023/03/23 13:41:47;;;;;;;9.38;1.40;;;;;;;;;;5023711;28;20522;-59
2023/03/23 13:44:18;;;;;;;16.73;1.98;;;;;;;;;;5022432;28;20124;-58
2023/03/23 13:46:54;;;;;;;10.15;1.67;;;;;;;;;;5023855;28;20045;-59
2023/03/23 13:49:22;;;;;;;17.92;2.38;;;;;;;;;;5023239;28;20045;-59
2023/03/23 13:51:54;;;;;;;9.90;1.58;;;;;;;;;;5022846;28;20044;-59
2023/03/23 13:54:26;;;;;;;10.10;1.95;;;;;;;;;;5022517;28;20121;-59
2023/03/23 13:56:55;;;;;;;7.95;1.42;;;;;;;;;;5023644;28;20055;-59
2023/03/23 13:59:27;;;;;;;10.50;2.00;;;;;;;;;;5022209;28;20093;-59
2023/03/23 14:01:56;;;;;;;11.10;1.45;;;;;;;;;;5023483;28;20081;-59
2023/03/23 14:04:22;;;;;;;;;;;;;;;;;;5023586;28;20703;-59
2023/03/23 14:06:49;;;;;;;21.45;2.92;;;;;;;;;;5022428;28;19921;-58
2023/03/23 14:09:17;;;;;;;15.65;2.33;;;;;;;;;;5022061;28;20524;-60
2023/03/23 14:11:49;;;;;;;11.57;1.50;;;;;;;;;;5023239;28;20045;-61
2023/03/23 14:14:20;;;;;;;12.68;1.70;;;;;;;;;;5022178;28;20086;-61
2023/03/23 14:16:51;;;;;;;7.72;1.70;;;;;;;;;;5009891;28;20495;-59
2023/03/23 14:19:19;;;;;;;12.93;2.03;;;;;;;;;;5009122;28;20561;-60
2023/03/23 14:21:50;;;;;;;19.77;2.90;;;;;;;;;;5023121;28;20438;-61
2023/03/23 14:24:17;;;;;;;19.95;2.65;;;;;;;;;;5005470;28;20053;-60
2023/03/23 14:26:44;;;;;;;11.20;1.73;;;;;;;;;;5011280;28;20084;-61
2023/03/23 14:29:12;;;;;;;11.55;1.77;;;;;;;;;;5007049;28;20033;-60
2023/03/23 14:31:39;;;;;;;10.67;2.20;;;;;;;;;;5016608;28;20182;-61
2023/03/23 14:34:17;;;;;;;11.15;1.80;;;;;;;;;;5006248;28;20097;-61
2023/03/23 14:36:46;;;;;;;14.80;2.10;;;;;;;;;;4996874;28;20057;-60
2023/03/23 14:39:23;;;;;;;14.48;1.70;;;;;;;;;;4998114;28;20041;-60
2023/03/23 14:41:50;;;;;;;11.75;1.50;;;;;;;;;;5023012;28;20052;-61
2023/03/23 14:44:19;;;;;;;15.45;2.08;;;;;;;;;;5003538;28;20045;-59
2023/03/23 14:46:46;;;;;;;11.95;2.17;;;;;;;;;;5003382;28;20038;-61
2023/03/23 14:49:14;;;;;;;18.38;2.50;;;;;;;;;;5003057;28;20075;-61
2023/03/23 14:51:40;;;;;;;;;;;;;;;;;;5004067;28;20535;-60
2023/03/23 14:54:08;;;;;;;13.02;2.17;;;;;;;;;;5012925;28;20020;-60